sensor_id;sensor_type;location;lat;lon;timestamp;P1;durP1;ratioP1;P2;durP2;ratioP2
13683;SDS011;6914;53.552;9.908;2023-02-15T00:01:35;94.30;;;37.93;;
13683;SDS011;6914;53.552;9.908;2023-02-15T00:04:02;117.43;;;39.20;;
13683;SDS011;6914;53.552;9.908;2023-02-15T00:06:32;107.80;;;37.90;;
13683;SDS011;6914;53.552;9.908;2023-02-15T00:08:59;189.00;;;40.50;;
13683;SDS011;6914;53.552;9.908;2023-02-15T00:11:27;125.43;;;38.17;;
13683;SDS011;6914;53.552;9.908;2023-02-15T00:14:08;105.03;;;36.10;;
13683;SDS011;6914;53.552;9.908;2023-02-15T00:16:36;85.97;;;36.40;;
13683;SDS011;6914;53.552;9.908;2023-02-15T00:19:04;185.60;;;39.70;;
13683;SDS011;6914;53.552;9.908;2023-02-15T00:21:33;157.30;;;38.63;;
13683;SDS011;6914;53.552;9.908;2023-02-15T00:24:01;264.73;;;38.57;;
13683;SDS011;6914;53.552;9.908;2023-02-15T00:26:30;221.07;;;40.37;;
13683;SDS011;6914;53.552;9.908;2023-02-15T00:28:58;296.83;;;43.10;;
13683;SDS011;6914;53.552;9.908;2023-02-15T00:31:25;88.77;;;37.47;;
13683;SDS011;6914;53.552;9.908;2023-02-15T00:33:52;177.73;;;39.27;;
13683;SDS011;6914;53.552;9.908;2023-02-15T00:36:19;247.77;;;42.13;;
13683;SDS011;6914;53.552;9.908;2023-02-15T00:38:49;287.63;;;40.13;;
13683;SDS011;6914;53.552;9.908;2023-02-15T00:41:17;292.03;;;44.37;;
13683;SDS011;6914;53.552;9.908;2023-02-15T00:43:44;126.07;;;42.97;;
13683;SDS011;6914;53.552;9.908;2023-02-15T00:46:12;130.00;;;40.67;;
13683;SDS011;6914;53.552;9.908;2023-02-15T00:48:39;404.30;;;45.57;;
13683;SDS011;6914;53.552;9.908;2023-02-15T00:51:05;138.97;;;43.87;;
13683;SDS011;6914;53.552;9.908;2023-02-15T00:53:32;185.33;;;43.27;;
13683;SDS011;6914;53.552;9.908;2023-02-15T00:56:01;101.37;;;41.87;;
13683;SDS011;6914;53.552;9.908;2023-02-15T00:58:28;190.37;;;41.27;;
13683;SDS011;6914;53.552;9.908;2023-02-15T01:00:55;201.00;;;41.50;;
13683;SDS011;6914;53.552;9.908;2023-02-15T01:03:30;185.07;;;43.50;;
13683;SDS011;6914;53.552;9.908;2023-02-15T01:05:57;273.13;;;45.60;;
13683;SDS011;6914;53.552;9.908;2023-02-15T01:08:24;282.97;;;45.60;;
13683;SDS011;6914;53.552;9.908;2023-02-15T01:10:52;225.07;;;43.13;;
13683;SDS011;6914;53.552;9.908;2023-02-15T01:13:20;234.40;;;44.37;;
13683;SDS011;6914;53.552;9.908;2023-02-15T01:15:52;457.13;;;43.73;;
13683;SDS011;6914;53.552;9.908;2023-02-15T01:18:19;225.10;;;43.77;;
13683;SDS011;6914;53.552;9.908;2023-02-15T01:20:46;292.70;;;43.80;;
13683;SDS011;6914;53.552;9.908;2023-02-15T01:23:15;297.43;;;41.30;;
13683;SDS011;6914;53.552;9.908;2023-02-15T01:25:42;249.67;;;43.90;;
13683;SDS011;6914;53.552;9.908;2023-02-15T01:28:09;182.70;;;42.50;;
13683;SDS011;6914;53.552;9.908;2023-02-15T01:30:38;434.67;;;46.80;;
13683;SDS011;6914;53.552;9.908;2023-02-15T01:33:05;196.47;;;42.97;;
13683;SDS011;6914;53.552;9.908;2023-02-15T01:35:31;487.40;;;48.43;;
13683;SDS011;6914;53.552;9.908;2023-02-15T01:37:58;225.60;;;43.50;;
13683;SDS011;6914;53.552;9.908;2023-02-15T01:40:25;343.70;;;46.30;;
13683;SDS011;6914;53.552;9.908;2023-02-15T01:42:52;374.10;;;45.47;;
13683;SDS011;6914;53.552;9.908;2023-02-15T01:45:22;294.03;;;44.73;;
13683;SDS011;6914;53.552;9.908;2023-02-15T01:47:54;306.63;;;44.00;;
13683;SDS011;6914;53.552;9.908;2023-02-15T01:50:25;439.20;;;49.90;;
13683;SDS011;6914;53.552;9.908;2023-02-15T01:52:56;356.90;;;46.10;;
13683;SDS011;6914;53.552;9.908;2023-02-15T01:55:29;305.43;;;45.93;;
13683;SDS011;6914;53.552;9.908;2023-02-15T01:57:59;222.63;;;44.90;;
13683;SDS011;6914;53.552;9.908;2023-02-15T02:00:26;411.30;;;44.30;;
13683;SDS011;6914;53.552;9.908;2023-02-15T02:02:55;489.63;;;47.97;;
13683;SDS011;6914;53.552;9.908;2023-02-15T02:05:23;181.53;;;44.80;;
13683;SDS011;6914;53.552;9.908;2023-02-15T02:07:51;291.17;;;43.40;;
13683;SDS011;6914;53.552;9.908;2023-02-15T02:10:21;498.30;;;47.27;;
13683;SDS011;6914;53.552;9.908;2023-02-15T02:12:50;184.80;;;43.80;;
13683;SDS011;6914;53.552;9.908;2023-02-15T02:15:20;244.30;;;47.30;;
13683;SDS011;6914;53.552;9.908;2023-02-15T02:18:02;470.07;;;43.60;;
13683;SDS011;6914;53.552;9.908;2023-02-15T02:20:43;172.30;;;45.20;;
13683;SDS011;6914;53.552;9.908;2023-02-15T02:23:31;440.07;;;45.40;;
13683;SDS011;6914;53.552;9.908;2023-02-15T02:32:27;268.43;;;45.77;;
13683;SDS011;6914;53.552;9.908;2023-02-15T02:35:22;258.87;;;47.07;;
13683;SDS011;6914;53.552;9.908;2023-02-15T02:37:56;386.07;;;46.20;;
13683;SDS011;6914;53.552;9.908;2023-02-15T02:40:32;147.23;;;42.80;;
13683;SDS011;6914;53.552;9.908;2023-02-15T02:43:13;388.90;;;44.97;;
13683;SDS011;6914;53.552;9.908;2023-02-15T02:45:47;448.60;;;49.10;;
13683;SDS011;6914;53.552;9.908;2023-02-15T02:48:20;253.77;;;44.43;;
13683;SDS011;6914;53.552;9.908;2023-02-15T02:50:53;474.80;;;46.33;;
13683;SDS011;6914;53.552;9.908;2023-02-15T02:53:20;158.70;;;41.57;;
13683;SDS011;6914;53.552;9.908;2023-02-15T02:55:48;199.50;;;42.37;;
13683;SDS011;6914;53.552;9.908;2023-02-15T02:58:20;226.43;;;41.97;;
13683;SDS011;6914;53.552;9.908;2023-02-15T03:00:53;505.90;;;46.57;;
13683;SDS011;6914;53.552;9.908;2023-02-15T03:03:24;483.57;;;47.50;;
13683;SDS011;6914;53.552;9.908;2023-02-15T03:05:56;366.27;;;44.33;;
13683;SDS011;6914;53.552;9.908;2023-02-15T03:08:26;329.17;;;45.00;;
13683;SDS011;6914;53.552;9.908;2023-02-15T03:11:01;281.87;;;44.23;;
13683;SDS011;6914;53.552;9.908;2023-02-15T03:13:30;397.97;;;46.87;;
13683;SDS011;6914;53.552;9.908;2023-02-15T03:15:57;568.20;;;45.90;;
13683;SDS011;6914;53.552;9.908;2023-02-15T03:18:44;404.53;;;45.20;;
13683;SDS011;6914;53.552;9.908;2023-02-15T03:21:19;363.07;;;42.37;;
13683;SDS011;6914;53.552;9.908;2023-02-15T03:23:48;197.43;;;44.47;;
13683;SDS011;6914;53.552;9.908;2023-02-15T03:26:20;349.53;;;47.00;;
13683;SDS011;6914;53.552;9.908;2023-02-15T03:28:49;281.80;;;45.97;;
13683;SDS011;6914;53.552;9.908;2023-02-15T03:31:19;205.20;;;43.97;;
13683;SDS011;6914;53.552;9.908;2023-02-15T03:33:52;193.17;;;43.70;;
13683;SDS011;6914;53.552;9.908;2023-02-15T03:36:23;326.63;;;42.43;;
13683;SDS011;6914;53.552;9.908;2023-02-15T03:38:56;213.63;;;42.93;;
13683;SDS011;6914;53.552;9.908;2023-02-15T03:41:29;383.73;;;43.03;;
13683;SDS011;6914;53.552;9.908;2023-02-15T03:43:59;191.23;;;44.10;;
13683;SDS011;6914;53.552;9.908;2023-02-15T03:46:31;235.33;;;39.90;;
13683;SDS011;6914;53.552;9.908;2023-02-15T03:49:03;427.27;;;46.40;;
13683;SDS011;6914;53.552;9.908;2023-02-15T03:51:36;469.83;;;43.93;;
13683;SDS011;6914;53.552;9.908;2023-02-15T03:54:07;343.00;;;46.40;;
13683;SDS011;6914;53.552;9.908;2023-02-15T03:56:37;593.40;;;48.20;;
13683;SDS011;6914;53.552;9.908;2023-02-15T03:59:06;447.03;;;46.73;;
13683;SDS011;6914;53.552;9.908;2023-02-15T04:01:54;190.73;;;44.00;;
13683;SDS011;6914;53.552;9.908;2023-02-15T04:04:31;354.37;;;43.70;;
13683;SDS011;6914;53.552;9.908;2023-02-15T04:07:02;308.73;;;42.13;;
13683;SDS011;6914;53.552;9.908;2023-02-15T04:09:31;201.00;;;42.40;;
13683;SDS011;6914;53.552;9.908;2023-02-15T04:12:16;104.23;;;39.57;;
13683;SDS011;6914;53.552;9.908;2023-02-15T04:14:42;148.13;;;43.57;;
13683;SDS011;6914;53.552;9.908;2023-02-15T04:17:27;275.17;;;40.70;;
13683;SDS011;6914;53.552;9.908;2023-02-15T04:19:54;301.90;;;41.17;;
13683;SDS011;6914;53.552;9.908;2023-02-15T04:22:40;309.93;;;43.07;;
13683;SDS011;6914;53.552;9.908;2023-02-15T04:25:24;238.33;;;40.77;;
13683;SDS011;6914;53.552;9.908;2023-02-15T04:27:52;191.23;;;37.27;;
13683;SDS011;6914;53.552;9.908;2023-02-15T04:30:21;104.83;;;37.73;;
13683;SDS011;6914;53.552;9.908;2023-02-15T04:32:49;338.13;;;41.17;;
13683;SDS011;6914;53.552;9.908;2023-02-15T04:35:19;161.63;;;40.00;;
13683;SDS011;6914;53.552;9.908;2023-02-15T04:37:49;229.53;;;40.10;;
13683;SDS011;6914;53.552;9.908;2023-02-15T04:40:18;218.70;;;42.20;;
13683;SDS011;6914;53.552;9.908;2023-02-15T04:42:46;445.47;;;39.93;;
13683;SDS011;6914;53.552;9.908;2023-02-15T04:45:14;274.63;;;39.20;;
13683;SDS011;6914;53.552;9.908;2023-02-15T04:47:42;146.40;;;37.87;;
13683;SDS011;6914;53.552;9.908;2023-02-15T04:50:09;296.37;;;39.70;;
13683;SDS011;6914;53.552;9.908;2023-02-15T04:52:36;543.37;;;42.50;;
13683;SDS011;6914;53.552;9.908;2023-02-15T04:55:05;572.47;;;41.10;;
13683;SDS011;6914;53.552;9.908;2023-02-15T04:57:33;458.77;;;42.57;;
13683;SDS011;6914;53.552;9.908;2023-02-15T05:00:00;266.27;;;39.57;;
13683;SDS011;6914;53.552;9.908;2023-02-15T05:02:27;253.33;;;38.27;;
13683;SDS011;6914;53.552;9.908;2023-02-15T05:04:54;300.50;;;36.87;;
13683;SDS011;6914;53.552;9.908;2023-02-15T05:07:21;182.07;;;35.83;;
13683;SDS011;6914;53.552;9.908;2023-02-15T05:09:48;633.90;;;44.37;;
13683;SDS011;6914;53.552;9.908;2023-02-15T05:12:18;298.93;;;37.00;;
13683;SDS011;6914;53.552;9.908;2023-02-15T05:14:45;291.33;;;37.40;;
13683;SDS011;6914;53.552;9.908;2023-02-15T05:17:12;364.77;;;38.50;;
13683;SDS011;6914;53.552;9.908;2023-02-15T05:19:39;554.23;;;42.50;;
13683;SDS011;6914;53.552;9.908;2023-02-15T05:22:06;396.47;;;42.23;;
13683;SDS011;6914;53.552;9.908;2023-02-15T05:24:32;619.33;;;44.20;;
13683;SDS011;6914;53.552;9.908;2023-02-15T05:27:18;309.10;;;35.93;;
13683;SDS011;6914;53.552;9.908;2023-02-15T05:30:03;209.30;;;38.67;;
13683;SDS011;6914;53.552;9.908;2023-02-15T05:32:36;527.63;;;40.47;;
13683;SDS011;6914;53.552;9.908;2023-02-15T05:35:03;399.73;;;40.60;;
13683;SDS011;6914;53.552;9.908;2023-02-15T05:37:30;439.90;;;39.50;;
13683;SDS011;6914;53.552;9.908;2023-02-15T05:39:57;469.73;;;41.90;;
13683;SDS011;6914;53.552;9.908;2023-02-15T05:42:25;378.77;;;38.50;;
13683;SDS011;6914;53.552;9.908;2023-02-15T05:44:52;237.00;;;35.97;;
13683;SDS011;6914;53.552;9.908;2023-02-15T05:47:19;224.77;;;37.23;;
13683;SDS011;6914;53.552;9.908;2023-02-15T05:49:45;162.00;;;39.80;;
13683;SDS011;6914;53.552;9.908;2023-02-15T05:52:12;175.40;;;37.27;;
13683;SDS011;6914;53.552;9.908;2023-02-15T05:54:39;335.20;;;38.93;;
13683;SDS011;6914;53.552;9.908;2023-02-15T05:57:06;511.83;;;38.67;;
13683;SDS011;6914;53.552;9.908;2023-02-15T05:59:35;242.17;;;34.50;;
13683;SDS011;6914;53.552;9.908;2023-02-15T06:02:02;278.80;;;37.37;;
13683;SDS011;6914;53.552;9.908;2023-02-15T06:04:28;467.70;;;39.17;;
13683;SDS011;6914;53.552;9.908;2023-02-15T06:06:55;418.43;;;39.67;;
13683;SDS011;6914;53.552;9.908;2023-02-15T06:09:22;220.27;;;35.60;;
13683;SDS011;6914;53.552;9.908;2023-02-15T06:11:50;162.90;;;35.20;;
13683;SDS011;6914;53.552;9.908;2023-02-15T06:14:19;120.20;;;33.60;;
13683;SDS011;6914;53.552;9.908;2023-02-15T06:16:47;143.50;;;33.40;;
13683;SDS011;6914;53.552;9.908;2023-02-15T06:19:14;120.40;;;34.13;;
13683;SDS011;6914;53.552;9.908;2023-02-15T06:21:41;177.80;;;34.10;;
13683;SDS011;6914;53.552;9.908;2023-02-15T06:24:08;459.50;;;39.07;;
13683;SDS011;6914;53.552;9.908;2023-02-15T06:26:36;154.97;;;34.60;;
13683;SDS011;6914;53.552;9.908;2023-02-15T06:29:02;240.83;;;37.07;;
13683;SDS011;6914;53.552;9.908;2023-02-15T06:31:29;405.57;;;39.57;;
13683;SDS011;6914;53.552;9.908;2023-02-15T06:33:57;460.27;;;40.00;;
13683;SDS011;6914;53.552;9.908;2023-02-15T06:36:26;213.70;;;37.20;;
13683;SDS011;6914;53.552;9.908;2023-02-15T06:38:53;224.37;;;35.13;;
13683;SDS011;6914;53.552;9.908;2023-02-15T06:41:20;170.97;;;37.37;;
13683;SDS011;6914;53.552;9.908;2023-02-15T06:43:48;459.67;;;36.40;;
13683;SDS011;6914;53.552;9.908;2023-02-15T06:46:17;318.27;;;35.07;;
13683;SDS011;6914;53.552;9.908;2023-02-15T06:48:44;165.83;;;30.80;;
13683;SDS011;6914;53.552;9.908;2023-02-15T06:51:13;110.00;;;34.30;;
13683;SDS011;6914;53.552;9.908;2023-02-15T06:53:40;164.77;;;34.57;;
13683;SDS011;6914;53.552;9.908;2023-02-15T06:56:08;122.10;;;34.43;;
13683;SDS011;6914;53.552;9.908;2023-02-15T06:58:36;296.27;;;37.03;;
13683;SDS011;6914;53.552;9.908;2023-02-15T07:01:03;356.93;;;37.30;;
13683;SDS011;6914;53.552;9.908;2023-02-15T07:03:30;218.90;;;34.50;;
13683;SDS011;6914;53.552;9.908;2023-02-15T07:05:58;380.07;;;34.20;;
13683;SDS011;6914;53.552;9.908;2023-02-15T07:08:28;103.40;;;33.67;;
13683;SDS011;6914;53.552;9.908;2023-02-15T07:10:55;101.27;;;34.70;;
13683;SDS011;6914;53.552;9.908;2023-02-15T07:13:43;95.63;;;34.50;;
13683;SDS011;6914;53.552;9.908;2023-02-15T07:16:09;450.27;;;39.93;;
13683;SDS011;6914;53.552;9.908;2023-02-15T07:18:36;270.50;;;37.10;;
13683;SDS011;6914;53.552;9.908;2023-02-15T07:21:03;213.73;;;37.60;;
13683;SDS011;6914;53.552;9.908;2023-02-15T07:23:34;212.93;;;38.20;;
13683;SDS011;6914;53.552;9.908;2023-02-15T07:26:01;192.63;;;36.30;;
13683;SDS011;6914;53.552;9.908;2023-02-15T07:28:28;312.73;;;38.63;;
13683;SDS011;6914;53.552;9.908;2023-02-15T07:30:56;145.63;;;36.80;;
13683;SDS011;6914;53.552;9.908;2023-02-15T07:33:23;232.47;;;34.67;;
13683;SDS011;6914;53.552;9.908;2023-02-15T07:35:54;262.20;;;36.47;;
13683;SDS011;6914;53.552;9.908;2023-02-15T07:38:23;242.87;;;33.37;;
13683;SDS011;6914;53.552;9.908;2023-02-15T07:40:56;144.00;;;34.20;;
13683;SDS011;6914;53.552;9.908;2023-02-15T07:43:24;494.83;;;39.33;;
13683;SDS011;6914;53.552;9.908;2023-02-15T07:45:51;122.17;;;35.10;;
13683;SDS011;6914;53.552;9.908;2023-02-15T07:48:20;164.23;;;38.07;;
13683;SDS011;6914;53.552;9.908;2023-02-15T07:50:47;366.87;;;39.70;;
13683;SDS011;6914;53.552;9.908;2023-02-15T07:53:14;162.97;;;35.43;;
13683;SDS011;6914;53.552;9.908;2023-02-15T07:55:41;225.67;;;37.67;;
13683;SDS011;6914;53.552;9.908;2023-02-15T07:58:10;231.37;;;36.17;;
13683;SDS011;6914;53.552;9.908;2023-02-15T08:00:37;127.70;;;36.70;;
13683;SDS011;6914;53.552;9.908;2023-02-15T08:03:17;152.53;;;34.60;;
13683;SDS011;6914;53.552;9.908;2023-02-15T08:05:44;379.13;;;39.60;;
13683;SDS011;6914;53.552;9.908;2023-02-15T08:08:11;261.67;;;37.07;;
13683;SDS011;6914;53.552;9.908;2023-02-15T08:10:57;113.70;;;36.70;;
13683;SDS011;6914;53.552;9.908;2023-02-15T08:13:44;102.73;;;37.83;;
13683;SDS011;6914;53.552;9.908;2023-02-15T08:16:24;75.63;;;33.57;;
13683;SDS011;6914;53.552;9.908;2023-02-15T08:18:54;139.77;;;38.50;;
13683;SDS011;6914;53.552;9.908;2023-02-15T08:21:24;177.30;;;37.10;;
13683;SDS011;6914;53.552;9.908;2023-02-15T08:23:53;324.00;;;39.83;;
13683;SDS011;6914;53.552;9.908;2023-02-15T08:26:22;491.67;;;43.90;;
13683;SDS011;6914;53.552;9.908;2023-02-15T08:28:51;110.97;;;38.80;;
13683;SDS011;6914;53.552;9.908;2023-02-15T08:31:20;223.97;;;35.40;;
13683;SDS011;6914;53.552;9.908;2023-02-15T08:33:48;150.87;;;36.43;;
13683;SDS011;6914;53.552;9.908;2023-02-15T08:36:17;149.57;;;37.60;;
13683;SDS011;6914;53.552;9.908;2023-02-15T08:38:46;394.73;;;37.37;;
13683;SDS011;6914;53.552;9.908;2023-02-15T08:41:14;173.17;;;38.73;;
13683;SDS011;6914;53.552;9.908;2023-02-15T08:43:44;151.97;;;40.37;;
13683;SDS011;6914;53.552;9.908;2023-02-15T08:46:13;195.43;;;37.77;;
13683;SDS011;6914;53.552;9.908;2023-02-15T08:48:41;254.40;;;36.63;;
13683;SDS011;6914;53.552;9.908;2023-02-15T08:51:10;223.67;;;36.03;;
13683;SDS011;6914;53.552;9.908;2023-02-15T08:53:39;475.47;;;40.70;;
13683;SDS011;6914;53.552;9.908;2023-02-15T08:56:07;188.07;;;37.70;;
13683;SDS011;6914;53.552;9.908;2023-02-15T08:58:35;111.20;;;39.07;;
13683;SDS011;6914;53.552;9.908;2023-02-15T09:01:08;222.97;;;37.97;;
13683;SDS011;6914;53.552;9.908;2023-02-15T09:03:37;206.87;;;39.47;;
13683;SDS011;6914;53.552;9.908;2023-02-15T09:06:05;172.63;;;39.10;;
13683;SDS011;6914;53.552;9.908;2023-02-15T09:08:32;190.43;;;39.70;;
13683;SDS011;6914;53.552;9.908;2023-02-15T09:11:06;183.13;;;40.20;;
13683;SDS011;6914;53.552;9.908;2023-02-15T09:13:35;89.47;;;37.17;;
13683;SDS011;6914;53.552;9.908;2023-02-15T09:16:03;94.43;;;38.47;;
13683;SDS011;6914;53.552;9.908;2023-02-15T09:18:32;129.57;;;35.67;;
13683;SDS011;6914;53.552;9.908;2023-02-15T09:21:07;118.97;;;39.67;;
13683;SDS011;6914;53.552;9.908;2023-02-15T09:23:38;127.27;;;39.60;;
13683;SDS011;6914;53.552;9.908;2023-02-15T09:26:06;220.53;;;36.80;;
13683;SDS011;6914;53.552;9.908;2023-02-15T09:28:34;216.30;;;40.00;;
13683;SDS011;6914;53.552;9.908;2023-02-15T09:31:06;487.30;;;42.60;;
13683;SDS011;6914;53.552;9.908;2023-02-15T09:33:35;369.47;;;44.40;;
13683;SDS011;6914;53.552;9.908;2023-02-15T09:36:02;208.37;;;38.57;;
13683;SDS011;6914;53.552;9.908;2023-02-15T09:38:31;103.90;;;37.37;;
13683;SDS011;6914;53.552;9.908;2023-02-15T09:41:03;136.17;;;38.40;;
13683;SDS011;6914;53.552;9.908;2023-02-15T09:43:41;92.20;;;38.20;;
13683;SDS011;6914;53.552;9.908;2023-02-15T09:46:21;97.43;;;38.70;;
13683;SDS011;6914;53.552;9.908;2023-02-15T09:49:02;107.27;;;40.60;;
13683;SDS011;6914;53.552;9.908;2023-02-15T09:51:45;109.80;;;39.87;;
13683;SDS011;6914;53.552;9.908;2023-02-15T09:54:33;123.70;;;39.77;;
13683;SDS011;6914;53.552;9.908;2023-02-15T09:57:10;121.80;;;43.17;;
13683;SDS011;6914;53.552;9.908;2023-02-15T09:59:45;101.67;;;40.87;;
13683;SDS011;6914;53.552;9.908;2023-02-15T10:02:24;103.10;;;44.27;;
13683;SDS011;6914;53.552;9.908;2023-02-15T10:05:07;95.17;;;40.17;;
13683;SDS011;6914;53.552;9.908;2023-02-15T10:07:48;126.33;;;43.10;;
13683;SDS011;6914;53.552;9.908;2023-02-15T10:10:36;163.93;;;43.37;;
13683;SDS011;6914;53.552;9.908;2023-02-15T10:13:12;150.17;;;42.93;;
13683;SDS011;6914;53.552;9.908;2023-02-15T10:15:52;107.13;;;42.67;;
13683;SDS011;6914;53.552;9.908;2023-02-15T10:18:39;90.90;;;40.23;;
13683;SDS011;6914;53.552;9.908;2023-02-15T10:21:16;97.93;;;42.37;;
13683;SDS011;6914;53.552;9.908;2023-02-15T10:24:08;91.00;;;41.20;;
13683;SDS011;6914;53.552;9.908;2023-02-15T10:26:49;94.27;;;42.53;;
13683;SDS011;6914;53.552;9.908;2023-02-15T10:29:18;86.43;;;40.00;;
13683;SDS011;6914;53.552;9.908;2023-02-15T10:31:55;94.67;;;41.13;;
13683;SDS011;6914;53.552;9.908;2023-02-15T10:34:30;76.27;;;40.27;;
13683;SDS011;6914;53.552;9.908;2023-02-15T10:37:08;78.50;;;38.37;;
13683;SDS011;6914;53.552;9.908;2023-02-15T10:39:54;89.20;;;41.87;;
13683;SDS011;6914;53.552;9.908;2023-02-15T10:42:37;77.93;;;39.20;;
13683;SDS011;6914;53.552;9.908;2023-02-15T10:45:18;77.53;;;40.30;;
13683;SDS011;6914;53.552;9.908;2023-02-15T10:47:58;77.17;;;40.87;;
13683;SDS011;6914;53.552;9.908;2023-02-15T10:50:47;77.57;;;38.93;;
13683;SDS011;6914;53.552;9.908;2023-02-15T10:56:19;77.60;;;37.50;;
13683;SDS011;6914;53.552;9.908;2023-02-15T10:58:59;65.50;;;36.00;;
13683;SDS011;6914;53.552;9.908;2023-02-15T11:01:40;71.80;;;38.23;;
13683;SDS011;6914;53.552;9.908;2023-02-15T11:04:29;80.03;;;42.67;;
13683;SDS011;6914;53.552;9.908;2023-02-15T11:07:13;75.63;;;39.93;;
13683;SDS011;6914;53.552;9.908;2023-02-15T11:09:45;76.53;;;39.57;;
13683;SDS011;6914;53.552;9.908;2023-02-15T11:12:16;80.23;;;40.87;;
13683;SDS011;6914;53.552;9.908;2023-02-15T11:14:48;85.47;;;45.63;;
13683;SDS011;6914;53.552;9.908;2023-02-15T11:17:22;97.60;;;44.70;;
13683;SDS011;6914;53.552;9.908;2023-02-15T11:19:55;98.07;;;44.90;;
13683;SDS011;6914;53.552;9.908;2023-02-15T11:22:27;94.03;;;43.60;;
13683;SDS011;6914;53.552;9.908;2023-02-15T11:24:56;81.20;;;43.60;;
13683;SDS011;6914;53.552;9.908;2023-02-15T11:27:28;73.20;;;43.03;;
13683;SDS011;6914;53.552;9.908;2023-02-15T11:30:02;76.50;;;41.80;;
13683;SDS011;6914;53.552;9.908;2023-02-15T11:32:35;76.53;;;41.50;;
13683;SDS011;6914;53.552;9.908;2023-02-15T11:35:10;82.13;;;41.97;;
13683;SDS011;6914;53.552;9.908;2023-02-15T11:37:47;72.80;;;41.70;;
13683;SDS011;6914;53.552;9.908;2023-02-15T11:40:19;79.33;;;44.07;;
13683;SDS011;6914;53.552;9.908;2023-02-15T11:42:51;68.13;;;40.67;;
13683;SDS011;6914;53.552;9.908;2023-02-15T11:45:25;72.47;;;39.13;;
13683;SDS011;6914;53.552;9.908;2023-02-15T11:47:53;72.00;;;41.13;;
13683;SDS011;6914;53.552;9.908;2023-02-15T11:50:22;73.07;;;40.73;;
13683;SDS011;6914;53.552;9.908;2023-02-15T11:52:51;62.43;;;39.07;;
13683;SDS011;6914;53.552;9.908;2023-02-15T11:55:23;65.27;;;38.37;;
13683;SDS011;6914;53.552;9.908;2023-02-15T11:57:52;60.57;;;37.90;;
13683;SDS011;6914;53.552;9.908;2023-02-15T12:00:27;76.97;;;38.67;;
13683;SDS011;6914;53.552;9.908;2023-02-15T12:03:02;51.93;;;35.03;;
13683;SDS011;6914;53.552;9.908;2023-02-15T12:05:36;60.73;;;38.23;;
13683;SDS011;6914;53.552;9.908;2023-02-15T12:08:09;58.00;;;36.57;;
13683;SDS011;6914;53.552;9.908;2023-02-15T12:10:42;60.43;;;39.13;;
13683;SDS011;6914;53.552;9.908;2023-02-15T12:13:23;63.90;;;37.70;;
13683;SDS011;6914;53.552;9.908;2023-02-15T12:15:52;68.30;;;36.00;;
13683;SDS011;6914;53.552;9.908;2023-02-15T12:18:21;56.37;;;34.40;;
13683;SDS011;6914;53.552;9.908;2023-02-15T12:21:01;59.20;;;32.90;;
13683;SDS011;6914;53.552;9.908;2023-02-15T12:23:31;58.87;;;31.53;;
13683;SDS011;6914;53.552;9.908;2023-02-15T12:26:02;49.97;;;31.90;;
13683;SDS011;6914;53.552;9.908;2023-02-15T12:28:30;53.30;;;33.93;;
13683;SDS011;6914;53.552;9.908;2023-02-15T12:31:02;51.93;;;33.10;;
13683;SDS011;6914;53.552;9.908;2023-02-15T12:33:36;53.77;;;34.50;;
13683;SDS011;6914;53.552;9.908;2023-02-15T12:36:11;53.20;;;34.73;;
13683;SDS011;6914;53.552;9.908;2023-02-15T12:38:43;46.87;;;33.50;;
13683;SDS011;6914;53.552;9.908;2023-02-15T12:41:27;52.67;;;34.53;;
13683;SDS011;6914;53.552;9.908;2023-02-15T12:44:02;47.27;;;31.73;;
13683;SDS011;6914;53.552;9.908;2023-02-15T12:46:32;49.00;;;31.10;;
13683;SDS011;6914;53.552;9.908;2023-02-15T12:49:07;53.03;;;33.40;;
13683;SDS011;6914;53.552;9.908;2023-02-15T12:51:44;49.27;;;34.07;;
13683;SDS011;6914;53.552;9.908;2023-02-15T12:54:16;48.67;;;33.93;;
13683;SDS011;6914;53.552;9.908;2023-02-15T12:56:50;48.10;;;31.93;;
13683;SDS011;6914;53.552;9.908;2023-02-15T12:59:17;46.53;;;33.40;;
13683;SDS011;6914;53.552;9.908;2023-02-15T13:01:47;49.70;;;32.13;;
13683;SDS011;6914;53.552;9.908;2023-02-15T13:04:15;47.53;;;31.77;;
13683;SDS011;6914;53.552;9.908;2023-02-15T13:06:48;54.43;;;31.40;;
13683;SDS011;6914;53.552;9.908;2023-02-15T13:09:17;44.10;;;32.37;;
13683;SDS011;6914;53.552;9.908;2023-02-15T13:11:46;56.30;;;32.60;;
13683;SDS011;6914;53.552;9.908;2023-02-15T13:14:17;51.47;;;34.33;;
13683;SDS011;6914;53.552;9.908;2023-02-15T13:16:49;55.70;;;33.80;;
13683;SDS011;6914;53.552;9.908;2023-02-15T13:19:18;47.30;;;32.73;;
13683;SDS011;6914;53.552;9.908;2023-02-15T13:21:50;54.00;;;34.50;;
13683;SDS011;6914;53.552;9.908;2023-02-15T13:24:20;51.73;;;33.80;;
13683;SDS011;6914;53.552;9.908;2023-02-15T13:26:50;53.87;;;32.77;;
13683;SDS011;6914;53.552;9.908;2023-02-15T13:29:21;51.70;;;32.77;;
13683;SDS011;6914;53.552;9.908;2023-02-15T13:31:52;48.60;;;32.97;;
13683;SDS011;6914;53.552;9.908;2023-02-15T13:34:22;47.53;;;31.50;;
13683;SDS011;6914;53.552;9.908;2023-02-15T13:36:53;51.57;;;34.17;;
13683;SDS011;6914;53.552;9.908;2023-02-15T13:39:29;46.67;;;32.30;;
13683;SDS011;6914;53.552;9.908;2023-02-15T13:42:05;51.50;;;33.03;;
13683;SDS011;6914;53.552;9.908;2023-02-15T13:44:51;53.50;;;33.90;;
13683;SDS011;6914;53.552;9.908;2023-02-15T13:47:30;48.13;;;33.40;;
13683;SDS011;6914;53.552;9.908;2023-02-15T13:50:10;54.30;;;33.97;;
13683;SDS011;6914;53.552;9.908;2023-02-15T13:53:02;47.47;;;30.40;;
13683;SDS011;6914;53.552;9.908;2023-02-15T13:55:45;55.37;;;33.57;;
13683;SDS011;6914;53.552;9.908;2023-02-15T13:58:21;42.80;;;31.10;;
13683;SDS011;6914;53.552;9.908;2023-02-15T14:01:06;46.40;;;30.70;;
13683;SDS011;6914;53.552;9.908;2023-02-15T14:06:50;42.23;;;29.57;;
13683;SDS011;6914;53.552;9.908;2023-02-15T14:09:34;64.87;;;28.70;;
13683;SDS011;6914;53.552;9.908;2023-02-15T14:12:29;43.87;;;29.57;;
13683;SDS011;6914;53.552;9.908;2023-02-15T14:15:08;41.87;;;27.43;;
13683;SDS011;6914;53.552;9.908;2023-02-15T14:17:47;50.17;;;28.70;;
13683;SDS011;6914;53.552;9.908;2023-02-15T14:20:24;49.40;;;29.43;;
13683;SDS011;6914;53.552;9.908;2023-02-15T14:22:59;43.77;;;29.13;;
13683;SDS011;6914;53.552;9.908;2023-02-15T14:25:37;41.70;;;28.23;;
13683;SDS011;6914;53.552;9.908;2023-02-15T14:28:10;44.60;;;26.47;;
13683;SDS011;6914;53.552;9.908;2023-02-15T14:30:41;41.87;;;28.53;;
13683;SDS011;6914;53.552;9.908;2023-02-15T14:33:18;52.20;;;26.60;;
13683;SDS011;6914;53.552;9.908;2023-02-15T14:36:00;41.90;;;28.00;;
13683;SDS011;6914;53.552;9.908;2023-02-15T14:38:36;41.23;;;27.60;;
13683;SDS011;6914;53.552;9.908;2023-02-15T14:41:11;45.80;;;27.27;;
13683;SDS011;6914;53.552;9.908;2023-02-15T14:43:46;45.03;;;27.20;;
13683;SDS011;6914;53.552;9.908;2023-02-15T14:46:18;40.83;;;26.67;;
13683;SDS011;6914;53.552;9.908;2023-02-15T14:48:51;38.33;;;29.03;;
13683;SDS011;6914;53.552;9.908;2023-02-15T14:57:27;42.30;;;28.13;;
13683;SDS011;6914;53.552;9.908;2023-02-15T14:59:57;43.70;;;29.70;;
13683;SDS011;6914;53.552;9.908;2023-02-15T15:02:26;43.30;;;27.77;;
13683;SDS011;6914;53.552;9.908;2023-02-15T15:04:57;35.97;;;26.77;;
13683;SDS011;6914;53.552;9.908;2023-02-15T15:07:27;48.43;;;27.60;;
13683;SDS011;6914;53.552;9.908;2023-02-15T15:10:05;38.07;;;27.40;;
13683;SDS011;6914;53.552;9.908;2023-02-15T15:12:54;45.23;;;26.80;;